Airfield :
LOGIN :

Register | Disclaimer

   EN    FR    IT 

 










Legend :    VFR   Marginal VFR   IFR   Intensive IFR   Very Intensive IFR
Visi :
Ceiling :
>= 8 km
>= 3000ft
5 to 8 km
1000 to 3000 ft
1500m to 5 km
500 to 1000 ft
800 to 1500m
200 to 500 ft
< 800m
< 200 ft
Symbols :   Thunderstorms  Fog  Heavy snow  Heavy precipitations  Wind > 20 kt
SIGMETs :     Misc.  Thunderstorms  Icing  Turbulence  Mountain Waves  Volcanic Ashes







- Airport Elevation : 306 ft
- IATA code : EMA
- Download approach charts


EGNX - Nottingham East Midlands

CURRENT METAR :
  • 201650Z 07010KT 9999 -SHRA BKN012 03/02 Q1009

EXPIRED METARs :
  • 201620Z 07013KT 9999 -SHRA FEW006 BKN012 03/02 Q1009
  • 201550Z 06015KT 5000 -RA BKN010 BKN026 03/02 Q1009
  • 201520Z 05012KT 9999 -SHRA BKN010 BKN032 04/03 Q1008
  • 201450Z 05010KT 9999 -SHRA BKN013 04/03 Q1008
  • 201420Z 05015KT 9999 -SHRA FEW012 BKN018 04/03 Q1009

TAF TAF EGNX
Valid from the 20 at 12:00 until the 21 at 12:00 UTC


201056Z 2012/2112 05012KT 9999 SCT020
PROB40
TEMPO 2012/2020 05015G25KT 7000 SHRA BKN012
BECMG 2020/2023 BKN010
PROB40
TEMPO 2020/2106 4000 SHRA BKN006
BECMG 2102/2105 11009KT
ATIS : +44 1332 852 852 (ext 3201)
No reported NOTAMs for that airfield.
2 SIGMETs reported for the London FIR (EGTT) :
 
Severe mountain waves
EGTT SIGMET 03 VALID 201700/202100 EGRR
EGTT LONDON FIR SEV MTW FCST WI N5500 W00220 - N5322 W00134 - N5158 W00304 - N5149 W00510 - N5500 W00447 - N5500 W00220 FL030/120 MOV N 10KT NC=
Severe mountain waves
EGTT SIGMET 02 VALID 201300/201700 EGRR
EGTT LONDON FIR SEV MTW FCST WI N5322 W00134 - N5149 W00328 - N5130 W00504 - N5500 W00447 - N5500 W00220 - N5322 W00134 FL030/120 STNR NC=



MET'MAP, your aeronautical weather chart ! - Copyright ORBIFLY December 2007 - Disclaimer

ORBIFLY MET'MAP TEAM :

Programming & Development : Alexandra Zaïnal
Concept & Development : Baudouin d'Aumeries
Co-Development & Prog : Marc-Olivier Méhu
Technical & hardware support : Manuel Goepfert

Contact : metmap@orbifly.com




SOURCES & CREDITS :

   NOAA